sensor_id;sensor_type;location;lat;lon;timestamp;P1;durP1;ratioP1;P2;durP2;ratioP2
18449;SDS011;9354;50.194;7.690;2022-07-10T00:00:59;3.90;;;1.03;;
18449;SDS011;9354;50.194;7.690;2022-07-10T00:03:27;4.37;;;1.40;;
18449;SDS011;9354;50.194;7.690;2022-07-10T00:05:54;5.77;;;1.30;;
18449;SDS011;9354;50.194;7.690;2022-07-10T00:08:22;6.63;;;1.30;;
18449;SDS011;9354;50.194;7.690;2022-07-10T00:10:49;3.27;;;1.43;;
18449;SDS011;9354;50.194;7.690;2022-07-10T00:13:18;4.97;;;1.57;;
18449;SDS011;9354;50.194;7.690;2022-07-10T00:15:45;3.90;;;1.33;;
18449;SDS011;9354;50.194;7.690;2022-07-10T00:18:13;4.53;;;1.67;;
18449;SDS011;9354;50.194;7.690;2022-07-10T00:20:40;6.47;;;1.27;;
18449;SDS011;9354;50.194;7.690;2022-07-10T00:23:07;5.47;;;1.27;;
18449;SDS011;9354;50.194;7.690;2022-07-10T00:25:35;7.70;;;1.57;;
18449;SDS011;9354;50.194;7.690;2022-07-10T00:28:02;4.43;;;1.33;;
18449;SDS011;9354;50.194;7.690;2022-07-10T00:30:31;5.87;;;1.60;;
18449;SDS011;9354;50.194;7.690;2022-07-10T00:32:59;3.17;;;1.20;;
18449;SDS011;9354;50.194;7.690;2022-07-10T00:35:26;8.07;;;1.57;;
18449;SDS011;9354;50.194;7.690;2022-07-10T00:37:54;3.17;;;1.30;;
18449;SDS011;9354;50.194;7.690;2022-07-10T00:40:21;4.07;;;1.73;;
18449;SDS011;9354;50.194;7.690;2022-07-10T00:42:49;2.90;;;1.47;;
18449;SDS011;9354;50.194;7.690;2022-07-10T00:45:16;8.10;;;1.33;;
18449;SDS011;9354;50.194;7.690;2022-07-10T00:47:45;4.77;;;1.50;;
18449;SDS011;9354;50.194;7.690;2022-07-10T00:50:12;8.53;;;1.60;;
18449;SDS011;9354;50.194;7.690;2022-07-10T00:52:40;4.23;;;1.30;;
18449;SDS011;9354;50.194;7.690;2022-07-10T00:55:08;4.87;;;1.27;;
18449;SDS011;9354;50.194;7.690;2022-07-10T00:57:36;5.13;;;1.50;;
18449;SDS011;9354;50.194;7.690;2022-07-10T01:00:05;5.57;;;1.37;;
18449;SDS011;9354;50.194;7.690;2022-07-10T01:02:34;6.90;;;1.80;;
18449;SDS011;9354;50.194;7.690;2022-07-10T01:05:03;3.10;;;1.43;;
18449;SDS011;9354;50.194;7.690;2022-07-10T01:07:31;2.43;;;1.10;;
18449;SDS011;9354;50.194;7.690;2022-07-10T01:09:58;7.23;;;1.50;;
18449;SDS011;9354;50.194;7.690;2022-07-10T01:12:27;6.10;;;1.93;;
18449;SDS011;9354;50.194;7.690;2022-07-10T01:14:55;5.40;;;1.47;;
18449;SDS011;9354;50.194;7.690;2022-07-10T01:17:22;7.43;;;1.60;;
18449;SDS011;9354;50.194;7.690;2022-07-10T01:19:50;10.50;;;1.60;;
18449;SDS011;9354;50.194;7.690;2022-07-10T01:22:19;2.73;;;1.30;;
18449;SDS011;9354;50.194;7.690;2022-07-10T01:24:46;4.33;;;1.20;;
18449;SDS011;9354;50.194;7.690;2022-07-10T01:27:14;4.37;;;1.30;;
18449;SDS011;9354;50.194;7.690;2022-07-10T01:29:41;7.23;;;1.20;;
18449;SDS011;9354;50.194;7.690;2022-07-10T01:32:10;4.47;;;1.57;;
18449;SDS011;9354;50.194;7.690;2022-07-10T01:34:37;7.50;;;1.40;;
18449;SDS011;9354;50.194;7.690;2022-07-10T01:37:05;5.30;;;1.40;;
18449;SDS011;9354;50.194;7.690;2022-07-10T01:39:34;9.40;;;1.67;;
18449;SDS011;9354;50.194;7.690;2022-07-10T01:42:01;5.40;;;1.50;;
18449;SDS011;9354;50.194;7.690;2022-07-10T01:44:29;8.10;;;1.63;;
18449;SDS011;9354;50.194;7.690;2022-07-10T01:46:56;8.20;;;1.40;;
18449;SDS011;9354;50.194;7.690;2022-07-10T01:49:23;3.57;;;1.20;;
18449;SDS011;9354;50.194;7.690;2022-07-10T01:51:51;3.53;;;1.30;;
18449;SDS011;9354;50.194;7.690;2022-07-10T01:54:18;3.60;;;1.30;;
18449;SDS011;9354;50.194;7.690;2022-07-10T01:56:47;5.50;;;1.43;;
18449;SDS011;9354;50.194;7.690;2022-07-10T01:59:14;7.70;;;1.43;;
18449;SDS011;9354;50.194;7.690;2022-07-10T02:01:41;4.73;;;1.40;;
18449;SDS011;9354;50.194;7.690;2022-07-10T02:04:09;3.90;;;1.33;;
18449;SDS011;9354;50.194;7.690;2022-07-10T02:06:53;6.37;;;1.23;;
18449;SDS011;9354;50.194;7.690;2022-07-10T02:09:21;3.53;;;1.33;;
18449;SDS011;9354;50.194;7.690;2022-07-10T02:11:50;4.53;;;2.13;;
18449;SDS011;9354;50.194;7.690;2022-07-10T02:14:17;7.37;;;1.40;;
18449;SDS011;9354;50.194;7.690;2022-07-10T02:16:45;6.80;;;1.40;;
18449;SDS011;9354;50.194;7.690;2022-07-10T02:19:12;3.60;;;1.27;;
18449;SDS011;9354;50.194;7.690;2022-07-10T02:21:39;5.03;;;1.20;;
18449;SDS011;9354;50.194;7.690;2022-07-10T02:24:07;7.33;;;1.40;;
18449;SDS011;9354;50.194;7.690;2022-07-10T02:26:34;5.00;;;1.30;;
18449;SDS011;9354;50.194;7.690;2022-07-10T02:29:03;8.63;;;2.10;;
18449;SDS011;9354;50.194;7.690;2022-07-10T02:31:30;5.57;;;1.43;;
18449;SDS011;9354;50.194;7.690;2022-07-10T02:34:00;9.70;;;1.60;;
18449;SDS011;9354;50.194;7.690;2022-07-10T02:36:27;5.23;;;1.33;;
18449;SDS011;9354;50.194;7.690;2022-07-10T02:38:54;6.20;;;1.30;;
18449;SDS011;9354;50.194;7.690;2022-07-10T02:41:22;3.83;;;1.50;;
18449;SDS011;9354;50.194;7.690;2022-07-10T02:43:49;2.70;;;1.40;;
18449;SDS011;9354;50.194;7.690;2022-07-10T02:46:18;8.70;;;1.60;;
18449;SDS011;9354;50.194;7.690;2022-07-10T02:48:45;5.53;;;1.13;;
18449;SDS011;9354;50.194;7.690;2022-07-10T02:51:13;7.67;;;1.43;;
18449;SDS011;9354;50.194;7.690;2022-07-10T02:53:40;8.13;;;1.33;;
18449;SDS011;9354;50.194;7.690;2022-07-10T02:56:07;4.80;;;1.33;;
18449;SDS011;9354;50.194;7.690;2022-07-10T02:58:35;4.60;;;1.40;;
18449;SDS011;9354;50.194;7.690;2022-07-10T03:01:05;6.07;;;1.40;;
18449;SDS011;9354;50.194;7.690;2022-07-10T03:03:33;3.70;;;1.57;;
18449;SDS011;9354;50.194;7.690;2022-07-10T03:06:01;7.83;;;2.00;;
18449;SDS011;9354;50.194;7.690;2022-07-10T03:08:29;4.20;;;1.50;;
18449;SDS011;9354;50.194;7.690;2022-07-10T03:10:56;7.30;;;1.23;;
18449;SDS011;9354;50.194;7.690;2022-07-10T03:13:23;5.93;;;1.40;;
18449;SDS011;9354;50.194;7.690;2022-07-10T03:15:53;4.73;;;1.53;;
18449;SDS011;9354;50.194;7.690;2022-07-10T03:18:21;7.03;;;1.30;;
18449;SDS011;9354;50.194;7.690;2022-07-10T03:20:49;4.93;;;1.60;;
18449;SDS011;9354;50.194;7.690;2022-07-10T03:23:17;2.87;;;1.20;;
18449;SDS011;9354;50.194;7.690;2022-07-10T03:25:45;4.30;;;1.30;;
18449;SDS011;9354;50.194;7.690;2022-07-10T03:28:12;4.73;;;1.77;;
18449;SDS011;9354;50.194;7.690;2022-07-10T03:30:40;6.53;;;1.30;;
18449;SDS011;9354;50.194;7.690;2022-07-10T03:33:07;6.03;;;1.83;;
18449;SDS011;9354;50.194;7.690;2022-07-10T03:35:35;5.03;;;1.30;;
18449;SDS011;9354;50.194;7.690;2022-07-10T03:38:03;2.80;;;1.33;;
18449;SDS011;9354;50.194;7.690;2022-07-10T03:40:31;3.77;;;1.30;;
18449;SDS011;9354;50.194;7.690;2022-07-10T03:42:59;5.67;;;1.20;;
18449;SDS011;9354;50.194;7.690;2022-07-10T03:45:26;4.87;;;1.20;;
18449;SDS011;9354;50.194;7.690;2022-07-10T03:47:53;3.00;;;1.00;;
18449;SDS011;9354;50.194;7.690;2022-07-10T03:50:21;3.73;;;1.30;;
18449;SDS011;9354;50.194;7.690;2022-07-10T03:52:48;5.40;;;1.23;;
18449;SDS011;9354;50.194;7.690;2022-07-10T03:55:17;4.47;;;1.50;;
18449;SDS011;9354;50.194;7.690;2022-07-10T03:57:44;7.93;;;1.40;;
18449;SDS011;9354;50.194;7.690;2022-07-10T04:00:20;7.00;;;1.17;;
18449;SDS011;9354;50.194;7.690;2022-07-10T04:02:54;6.57;;;1.30;;
18449;SDS011;9354;50.194;7.690;2022-07-10T04:05:23;3.53;;;1.03;;
18449;SDS011;9354;50.194;7.690;2022-07-10T04:07:50;8.77;;;1.40;;
18449;SDS011;9354;50.194;7.690;2022-07-10T04:10:19;5.90;;;1.10;;
18449;SDS011;9354;50.194;7.690;2022-07-10T04:12:47;7.37;;;1.47;;
18449;SDS011;9354;50.194;7.690;2022-07-10T04:15:14;5.40;;;1.07;;
18449;SDS011;9354;50.194;7.690;2022-07-10T04:17:42;9.83;;;1.37;;
18449;SDS011;9354;50.194;7.690;2022-07-10T04:20:10;7.57;;;1.30;;
18449;SDS011;9354;50.194;7.690;2022-07-10T04:22:37;2.47;;;1.20;;
18449;SDS011;9354;50.194;7.690;2022-07-10T04:25:05;4.53;;;1.30;;
18449;SDS011;9354;50.194;7.690;2022-07-10T04:27:35;4.67;;;1.27;;
18449;SDS011;9354;50.194;7.690;2022-07-10T04:30:03;12.63;;;1.30;;
18449;SDS011;9354;50.194;7.690;2022-07-10T04:32:31;4.80;;;1.30;;
18449;SDS011;9354;50.194;7.690;2022-07-10T04:34:59;6.47;;;1.43;;
18449;SDS011;9354;50.194;7.690;2022-07-10T04:37:27;6.40;;;1.10;;
18449;SDS011;9354;50.194;7.690;2022-07-10T04:39:54;3.60;;;1.10;;
18449;SDS011;9354;50.194;7.690;2022-07-10T04:42:22;4.10;;;1.23;;
18449;SDS011;9354;50.194;7.690;2022-07-10T04:44:50;6.30;;;1.20;;
18449;SDS011;9354;50.194;7.690;2022-07-10T04:47:18;7.13;;;1.17;;
18449;SDS011;9354;50.194;7.690;2022-07-10T04:49:45;5.83;;;1.50;;
18449;SDS011;9354;50.194;7.690;2022-07-10T04:52:13;8.30;;;1.60;;
18449;SDS011;9354;50.194;7.690;2022-07-10T04:54:40;7.10;;;1.23;;
18449;SDS011;9354;50.194;7.690;2022-07-10T04:57:08;6.43;;;1.40;;
18449;SDS011;9354;50.194;7.690;2022-07-10T04:59:35;4.07;;;1.50;;
18449;SDS011;9354;50.194;7.690;2022-07-10T05:02:04;1.63;;;1.00;;
18449;SDS011;9354;50.194;7.690;2022-07-10T05:04:32;8.00;;;1.30;;
18449;SDS011;9354;50.194;7.690;2022-07-10T05:07:00;4.07;;;0.97;;
18449;SDS011;9354;50.194;7.690;2022-07-10T05:09:27;4.97;;;1.13;;
18449;SDS011;9354;50.194;7.690;2022-07-10T05:11:54;6.60;;;1.53;;
18449;SDS011;9354;50.194;7.690;2022-07-10T05:14:22;7.63;;;1.37;;
18449;SDS011;9354;50.194;7.690;2022-07-10T05:16:51;3.50;;;0.87;;
18449;SDS011;9354;50.194;7.690;2022-07-10T05:19:20;4.00;;;1.23;;
18449;SDS011;9354;50.194;7.690;2022-07-10T05:21:47;4.10;;;1.20;;
18449;SDS011;9354;50.194;7.690;2022-07-10T05:24:14;5.60;;;1.20;;
18449;SDS011;9354;50.194;7.690;2022-07-10T05:26:42;4.00;;;1.30;;
18449;SDS011;9354;50.194;7.690;2022-07-10T05:29:09;4.93;;;1.27;;
18449;SDS011;9354;50.194;7.690;2022-07-10T05:31:37;5.83;;;1.17;;
18449;SDS011;9354;50.194;7.690;2022-07-10T05:34:04;6.90;;;2.23;;
18449;SDS011;9354;50.194;7.690;2022-07-10T05:36:33;3.70;;;1.30;;
18449;SDS011;9354;50.194;7.690;2022-07-10T05:39:00;4.57;;;1.83;;
18449;SDS011;9354;50.194;7.690;2022-07-10T05:41:28;3.60;;;1.17;;
18449;SDS011;9354;50.194;7.690;2022-07-10T05:43:58;7.47;;;1.47;;
18449;SDS011;9354;50.194;7.690;2022-07-10T05:46:25;6.40;;;1.40;;
18449;SDS011;9354;50.194;7.690;2022-07-10T05:48:52;4.57;;;1.40;;
18449;SDS011;9354;50.194;7.690;2022-07-10T05:51:20;3.60;;;1.17;;
18449;SDS011;9354;50.194;7.690;2022-07-10T05:53:49;5.27;;;1.40;;
18449;SDS011;9354;50.194;7.690;2022-07-10T05:56:16;5.60;;;1.37;;
18449;SDS011;9354;50.194;7.690;2022-07-10T05:58:43;7.37;;;3.27;;
18449;SDS011;9354;50.194;7.690;2022-07-10T06:01:11;4.83;;;1.27;;
18449;SDS011;9354;50.194;7.690;2022-07-10T06:03:38;3.37;;;1.20;;
18449;SDS011;9354;50.194;7.690;2022-07-10T06:06:06;4.27;;;1.10;;
18449;SDS011;9354;50.194;7.690;2022-07-10T06:08:33;4.67;;;1.10;;
18449;SDS011;9354;50.194;7.690;2022-07-10T06:11:02;3.33;;;1.20;;
18449;SDS011;9354;50.194;7.690;2022-07-10T06:13:30;6.40;;;1.43;;
18449;SDS011;9354;50.194;7.690;2022-07-10T06:15:57;7.30;;;1.87;;
18449;SDS011;9354;50.194;7.690;2022-07-10T06:18:24;5.00;;;1.50;;
18449;SDS011;9354;50.194;7.690;2022-07-10T06:20:52;4.03;;;1.50;;
18449;SDS011;9354;50.194;7.690;2022-07-10T06:23:19;6.37;;;1.97;;
18449;SDS011;9354;50.194;7.690;2022-07-10T06:25:47;9.70;;;1.80;;
18449;SDS011;9354;50.194;7.690;2022-07-10T06:28:16;7.50;;;1.70;;
18449;SDS011;9354;50.194;7.690;2022-07-10T06:30:43;4.73;;;1.20;;
18449;SDS011;9354;50.194;7.690;2022-07-10T06:33:11;8.73;;;1.60;;
18449;SDS011;9354;50.194;7.690;2022-07-10T06:35:39;6.53;;;1.20;;
18449;SDS011;9354;50.194;7.690;2022-07-10T06:38:06;5.13;;;1.27;;
18449;SDS011;9354;50.194;7.690;2022-07-10T06:40:35;9.47;;;1.40;;
18449;SDS011;9354;50.194;7.690;2022-07-10T06:43:03;4.07;;;1.20;;
18449;SDS011;9354;50.194;7.690;2022-07-10T06:45:32;4.70;;;1.23;;
18449;SDS011;9354;50.194;7.690;2022-07-10T06:47:59;7.63;;;1.60;;
18449;SDS011;9354;50.194;7.690;2022-07-10T06:50:26;4.67;;;1.40;;
18449;SDS011;9354;50.194;7.690;2022-07-10T06:52:56;13.03;;;1.67;;
18449;SDS011;9354;50.194;7.690;2022-07-10T06:55:23;8.33;;;1.50;;
18449;SDS011;9354;50.194;7.690;2022-07-10T06:57:52;6.70;;;1.37;;
18449;SDS011;9354;50.194;7.690;2022-07-10T07:00:19;4.10;;;1.20;;
18449;SDS011;9354;50.194;7.690;2022-07-10T07:02:48;4.47;;;1.37;;
18449;SDS011;9354;50.194;7.690;2022-07-10T07:05:16;3.20;;;1.17;;
18449;SDS011;9354;50.194;7.690;2022-07-10T07:07:43;3.33;;;1.20;;
18449;SDS011;9354;50.194;7.690;2022-07-10T07:10:11;5.97;;;1.40;;
18449;SDS011;9354;50.194;7.690;2022-07-10T07:12:39;6.03;;;1.50;;
18449;SDS011;9354;50.194;7.690;2022-07-10T07:15:06;8.83;;;1.53;;
18449;SDS011;9354;50.194;7.690;2022-07-10T07:17:38;13.03;;;2.90;;
18449;SDS011;9354;50.194;7.690;2022-07-10T07:20:24;7.27;;;1.37;;
18449;SDS011;9354;50.194;7.690;2022-07-10T07:23:10;4.40;;;1.97;;
18449;SDS011;9354;50.194;7.690;2022-07-10T07:25:37;3.33;;;1.40;;
18449;SDS011;9354;50.194;7.690;2022-07-10T07:28:07;3.27;;;1.43;;
18449;SDS011;9354;50.194;7.690;2022-07-10T07:30:36;6.57;;;1.53;;
18449;SDS011;9354;50.194;7.690;2022-07-10T07:33:03;7.13;;;1.40;;
18449;SDS011;9354;50.194;7.690;2022-07-10T07:35:32;6.10;;;1.57;;
18449;SDS011;9354;50.194;7.690;2022-07-10T07:38:00;6.93;;;1.33;;
18449;SDS011;9354;50.194;7.690;2022-07-10T07:40:29;4.50;;;1.03;;
18449;SDS011;9354;50.194;7.690;2022-07-10T07:42:56;4.07;;;1.10;;
18449;SDS011;9354;50.194;7.690;2022-07-10T07:45:24;3.50;;;1.30;;
18449;SDS011;9354;50.194;7.690;2022-07-10T07:47:53;8.77;;;1.40;;
18449;SDS011;9354;50.194;7.690;2022-07-10T07:50:22;5.90;;;1.60;;
18449;SDS011;9354;50.194;7.690;2022-07-10T07:52:53;4.10;;;1.10;;
18449;SDS011;9354;50.194;7.690;2022-07-10T07:55:21;4.37;;;1.60;;
18449;SDS011;9354;50.194;7.690;2022-07-10T07:57:50;4.17;;;1.13;;
18449;SDS011;9354;50.194;7.690;2022-07-10T08:00:20;4.10;;;1.20;;
18449;SDS011;9354;50.194;7.690;2022-07-10T08:02:49;6.47;;;1.30;;
18449;SDS011;9354;50.194;7.690;2022-07-10T08:05:16;8.17;;;1.30;;
18449;SDS011;9354;50.194;7.690;2022-07-10T08:07:45;4.23;;;1.27;;
18449;SDS011;9354;50.194;7.690;2022-07-10T08:10:15;4.67;;;1.47;;
18449;SDS011;9354;50.194;7.690;2022-07-10T08:12:44;4.60;;;1.23;;
18449;SDS011;9354;50.194;7.690;2022-07-10T08:15:13;5.43;;;1.00;;
18449;SDS011;9354;50.194;7.690;2022-07-10T08:17:41;5.67;;;1.10;;
18449;SDS011;9354;50.194;7.690;2022-07-10T08:20:11;4.43;;;1.10;;
18449;SDS011;9354;50.194;7.690;2022-07-10T08:22:39;8.43;;;1.30;;
18449;SDS011;9354;50.194;7.690;2022-07-10T08:25:07;3.90;;;0.97;;
18449;SDS011;9354;50.194;7.690;2022-07-10T08:27:37;4.17;;;0.93;;
18449;SDS011;9354;50.194;7.690;2022-07-10T08:30:04;3.00;;;1.00;;
18449;SDS011;9354;50.194;7.690;2022-07-10T08:32:34;6.10;;;1.13;;
18449;SDS011;9354;50.194;7.690;2022-07-10T08:35:02;2.87;;;0.93;;
18449;SDS011;9354;50.194;7.690;2022-07-10T08:37:31;4.27;;;1.07;;
18449;SDS011;9354;50.194;7.690;2022-07-10T08:40:04;2.93;;;1.07;;
18449;SDS011;9354;50.194;7.690;2022-07-10T08:42:33;5.83;;;1.53;;
18449;SDS011;9354;50.194;7.690;2022-07-10T08:45:02;7.63;;;1.00;;
18449;SDS011;9354;50.194;7.690;2022-07-10T08:47:30;4.40;;;1.53;;
18449;SDS011;9354;50.194;7.690;2022-07-10T08:50:01;7.00;;;1.10;;
18449;SDS011;9354;50.194;7.690;2022-07-10T08:52:31;5.00;;;1.40;;
18449;SDS011;9354;50.194;7.690;2022-07-10T08:55:04;3.57;;;1.10;;
18449;SDS011;9354;50.194;7.690;2022-07-10T08:57:32;8.87;;;1.30;;
18449;SDS011;9354;50.194;7.690;2022-07-10T09:00:02;4.40;;;0.93;;
18449;SDS011;9354;50.194;7.690;2022-07-10T09:02:30;2.17;;;0.80;;
18449;SDS011;9354;50.194;7.690;2022-07-10T09:04:58;3.57;;;1.00;;
18449;SDS011;9354;50.194;7.690;2022-07-10T09:07:25;10.73;;;1.40;;
18449;SDS011;9354;50.194;7.690;2022-07-10T09:10:05;6.13;;;1.30;;
18449;SDS011;9354;50.194;7.690;2022-07-10T09:12:48;4.00;;;1.33;;
18449;SDS011;9354;50.194;7.690;2022-07-10T09:15:19;3.93;;;0.97;;
18449;SDS011;9354;50.194;7.690;2022-07-10T09:17:49;5.53;;;1.20;;
18449;SDS011;9354;50.194;7.690;2022-07-10T09:20:26;8.07;;;1.60;;
18449;SDS011;9354;50.194;7.690;2022-07-10T09:22:56;8.70;;;1.27;;
18449;SDS011;9354;50.194;7.690;2022-07-10T09:25:29;5.00;;;1.23;;
18449;SDS011;9354;50.194;7.690;2022-07-10T09:27:58;2.77;;;0.97;;
18449;SDS011;9354;50.194;7.690;2022-07-10T09:30:33;5.27;;;1.40;;
18449;SDS011;9354;50.194;7.690;2022-07-10T09:33:17;3.23;;;1.17;;
18449;SDS011;9354;50.194;7.690;2022-07-10T09:35:57;4.53;;;1.00;;
18449;SDS011;9354;50.194;7.690;2022-07-10T09:41:26;3.83;;;1.10;;
18449;SDS011;9354;50.194;7.690;2022-07-10T09:43:55;3.47;;;1.17;;
18449;SDS011;9354;50.194;7.690;2022-07-10T09:46:26;3.63;;;1.10;;
18449;SDS011;9354;50.194;7.690;2022-07-10T09:49:01;6.17;;;1.00;;
18449;SDS011;9354;50.194;7.690;2022-07-10T09:51:34;4.40;;;1.20;;
18449;SDS011;9354;50.194;7.690;2022-07-10T09:54:04;5.63;;;1.10;;
18449;SDS011;9354;50.194;7.690;2022-07-10T09:56:33;3.60;;;1.00;;
18449;SDS011;9354;50.194;7.690;2022-07-10T09:59:08;3.67;;;0.97;;
18449;SDS011;9354;50.194;7.690;2022-07-10T10:01:38;2.67;;;1.07;;
18449;SDS011;9354;50.194;7.690;2022-07-10T10:04:09;9.40;;;1.30;;
18449;SDS011;9354;50.194;7.690;2022-07-10T10:06:38;3.40;;;1.17;;
18449;SDS011;9354;50.194;7.690;2022-07-10T10:09:08;3.53;;;0.90;;
18449;SDS011;9354;50.194;7.690;2022-07-10T10:11:40;4.93;;;1.03;;
18449;SDS011;9354;50.194;7.690;2022-07-10T10:14:10;3.53;;;0.83;;
18449;SDS011;9354;50.194;7.690;2022-07-10T10:16:41;5.27;;;1.10;;
18449;SDS011;9354;50.194;7.690;2022-07-10T10:19:11;7.53;;;1.53;;
18449;SDS011;9354;50.194;7.690;2022-07-10T10:21:58;3.53;;;1.20;;
18449;SDS011;9354;50.194;7.690;2022-07-10T10:24:28;4.30;;;1.47;;
18449;SDS011;9354;50.194;7.690;2022-07-10T10:26:58;5.77;;;1.97;;
18449;SDS011;9354;50.194;7.690;2022-07-10T10:29:26;5.37;;;1.50;;
18449;SDS011;9354;50.194;7.690;2022-07-10T10:31:55;5.43;;;1.17;;
18449;SDS011;9354;50.194;7.690;2022-07-10T10:37:34;3.43;;;1.87;;
18449;SDS011;9354;50.194;7.690;2022-07-10T10:40:03;4.47;;;1.30;;
18449;SDS011;9354;50.194;7.690;2022-07-10T10:42:32;4.40;;;1.07;;
18449;SDS011;9354;50.194;7.690;2022-07-10T10:48:02;2.37;;;1.03;;
18449;SDS011;9354;50.194;7.690;2022-07-10T10:50:38;3.23;;;1.10;;
18449;SDS011;9354;50.194;7.690;2022-07-10T10:53:13;3.27;;;1.07;;
18449;SDS011;9354;50.194;7.690;2022-07-10T10:58:42;2.00;;;1.00;;
18449;SDS011;9354;50.194;7.690;2022-07-10T11:01:23;3.90;;;1.00;;
18449;SDS011;9354;50.194;7.690;2022-07-10T11:04:15;4.63;;;1.10;;
18449;SDS011;9354;50.194;7.690;2022-07-10T11:06:44;6.57;;;1.40;;
18449;SDS011;9354;50.194;7.690;2022-07-10T11:09:22;4.97;;;1.27;;
18449;SDS011;9354;50.194;7.690;2022-07-10T11:12:03;3.50;;;1.03;;
18449;SDS011;9354;50.194;7.690;2022-07-10T11:14:32;2.60;;;1.20;;
18449;SDS011;9354;50.194;7.690;2022-07-10T11:17:02;4.43;;;1.30;;
18449;SDS011;9354;50.194;7.690;2022-07-10T11:19:31;4.17;;;1.07;;
18449;SDS011;9354;50.194;7.690;2022-07-10T11:22:10;3.17;;;1.20;;
18449;SDS011;9354;50.194;7.690;2022-07-10T11:24:48;5.03;;;1.23;;
18449;SDS011;9354;50.194;7.690;2022-07-10T11:27:28;2.97;;;0.97;;
18449;SDS011;9354;50.194;7.690;2022-07-10T11:30:06;5.20;;;1.47;;
18449;SDS011;9354;50.194;7.690;2022-07-10T11:32:35;3.63;;;0.90;;
18449;SDS011;9354;50.194;7.690;2022-07-10T11:35:08;2.00;;;1.10;;
18449;SDS011;9354;50.194;7.690;2022-07-10T11:37:47;2.33;;;1.07;;
18449;SDS011;9354;50.194;7.690;2022-07-10T11:40:16;1.97;;;1.03;;
18449;SDS011;9354;50.194;7.690;2022-07-10T11:42:48;3.60;;;1.00;;
18449;SDS011;9354;50.194;7.690;2022-07-10T11:45:24;2.17;;;1.13;;
18449;SDS011;9354;50.194;7.690;2022-07-10T11:47:55;2.47;;;1.20;;
18449;SDS011;9354;50.194;7.690;2022-07-10T11:50:25;3.80;;;1.30;;
18449;SDS011;9354;50.194;7.690;2022-07-10T11:52:53;3.53;;;1.20;;
18449;SDS011;9354;50.194;7.690;2022-07-10T11:55:21;3.77;;;1.00;;
18449;SDS011;9354;50.194;7.690;2022-07-10T11:57:50;4.03;;;1.00;;
18449;SDS011;9354;50.194;7.690;2022-07-10T12:00:24;2.10;;;0.93;;
18449;SDS011;9354;50.194;7.690;2022-07-10T12:02:53;1.50;;;0.77;;
18449;SDS011;9354;50.194;7.690;2022-07-10T12:05:32;3.87;;;1.00;;
18449;SDS011;9354;50.194;7.690;2022-07-10T12:08:01;2.73;;;0.87;;
18449;SDS011;9354;50.194;7.690;2022-07-10T12:10:29;8.83;;;2.00;;
18449;SDS011;9354;50.194;7.690;2022-07-10T12:13:04;1.77;;;0.80;;
18449;SDS011;9354;50.194;7.690;2022-07-10T12:15:35;5.37;;;2.30;;
18449;SDS011;9354;50.194;7.690;2022-07-10T12:18:04;7.53;;;1.13;;
18449;SDS011;9354;50.194;7.690;2022-07-10T12:20:34;0.90;;;0.80;;
18449;SDS011;9354;50.194;7.690;2022-07-10T12:23:02;4.70;;;0.83;;
18449;SDS011;9354;50.194;7.690;2022-07-10T12:25:30;4.80;;;2.10;;
18449;SDS011;9354;50.194;7.690;2022-07-10T12:27:58;1.87;;;0.60;;
18449;SDS011;9354;50.194;7.690;2022-07-10T12:30:38;1.73;;;0.60;;
18449;SDS011;9354;50.194;7.690;2022-07-10T12:33:07;2.23;;;1.00;;
18449;SDS011;9354;50.194;7.690;2022-07-10T12:35:47;3.60;;;1.00;;
18449;SDS011;9354;50.194;7.690;2022-07-10T12:38:16;1.97;;;0.90;;
18449;SDS011;9354;50.194;7.690;2022-07-10T12:40:45;8.53;;;1.20;;
18449;SDS011;9354;50.194;7.690;2022-07-10T12:43:12;1.57;;;0.80;;
18449;SDS011;9354;50.194;7.690;2022-07-10T12:48:36;2.13;;;1.03;;
18449;SDS011;9354;50.194;7.690;2022-07-10T12:51:26;2.33;;;0.90;;
18449;SDS011;9354;50.194;7.690;2022-07-10T12:53:54;2.17;;;1.10;;
18449;SDS011;9354;50.194;7.690;2022-07-10T12:56:28;3.63;;;1.37;;
18449;SDS011;9354;50.194;7.690;2022-07-10T12:58:57;2.77;;;1.40;;
18449;SDS011;9354;50.194;7.690;2022-07-10T13:01:26;3.80;;;1.40;;
18449;SDS011;9354;50.194;7.690;2022-07-10T13:03:58;4.10;;;1.10;;
18449;SDS011;9354;50.194;7.690;2022-07-10T13:06:28;1.77;;;1.40;;
18449;SDS011;9354;50.194;7.690;2022-07-10T13:08:56;4.13;;;1.50;;
18449;SDS011;9354;50.194;7.690;2022-07-10T13:11:23;2.13;;;1.50;;
18449;SDS011;9354;50.194;7.690;2022-07-10T13:13:52;3.77;;;1.53;;
18449;SDS011;9354;50.194;7.690;2022-07-10T13:16:20;3.80;;;1.50;;
18449;SDS011;9354;50.194;7.690;2022-07-10T13:18:48;3.00;;;1.43;;
18449;SDS011;9354;50.194;7.690;2022-07-10T13:21:15;4.30;;;1.67;;
18449;SDS011;9354;50.194;7.690;2022-07-10T13:23:44;3.23;;;1.60;;
18449;SDS011;9354;50.194;7.690;2022-07-10T13:26:13;3.30;;;2.10;;
18449;SDS011;9354;50.194;7.690;2022-07-10T13:28:41;3.27;;;1.83;;
18449;SDS011;9354;50.194;7.690;2022-07-10T13:31:08;4.33;;;1.73;;
18449;SDS011;9354;50.194;7.690;2022-07-10T13:33:35;3.93;;;1.67;;
18449;SDS011;9354;50.194;7.690;2022-07-10T13:36:03;5.53;;;1.80;;
18449;SDS011;9354;50.194;7.690;2022-07-10T13:38:31;4.40;;;2.10;;
18449;SDS011;9354;50.194;7.690;2022-07-10T13:41:00;5.23;;;2.20;;
18449;SDS011;9354;50.194;7.690;2022-07-10T13:43:27;2.30;;;1.90;;
18449;SDS011;9354;50.194;7.690;2022-07-10T13:45:58;5.37;;;2.50;;
18449;SDS011;9354;50.194;7.690;2022-07-10T13:48:27;5.17;;;2.30;;
18449;SDS011;9354;50.194;7.690;2022-07-10T13:50:56;5.20;;;2.77;;
18449;SDS011;9354;50.194;7.690;2022-07-10T13:53:24;3.60;;;2.70;;
18449;SDS011;9354;50.194;7.690;2022-07-10T13:55:52;5.60;;;2.60;;
18449;SDS011;9354;50.194;7.690;2022-07-10T13:58:21;3.17;;;2.63;;
18449;SDS011;9354;50.194;7.690;2022-07-10T14:00:48;3.00;;;2.60;;
18449;SDS011;9354;50.194;7.690;2022-07-10T14:03:16;7.73;;;2.93;;
18449;SDS011;9354;50.194;7.690;2022-07-10T14:05:43;4.23;;;2.90;;
18449;SDS011;9354;50.194;7.690;2022-07-10T14:08:10;4.27;;;2.90;;
18449;SDS011;9354;50.194;7.690;2022-07-10T14:10:38;6.33;;;2.70;;
18449;SDS011;9354;50.194;7.690;2022-07-10T14:13:05;8.40;;;3.37;;
18449;SDS011;9354;50.194;7.690;2022-07-10T14:15:35;5.63;;;3.50;;
18449;SDS011;9354;50.194;7.690;2022-07-10T14:18:03;5.20;;;3.30;;
18449;SDS011;9354;50.194;7.690;2022-07-10T14:20:30;6.33;;;3.40;;
18449;SDS011;9354;50.194;7.690;2022-07-10T14:23:19;5.67;;;3.70;;
18449;SDS011;9354;50.194;7.690;2022-07-10T14:25:46;5.33;;;3.13;;
18449;SDS011;9354;50.194;7.690;2022-07-10T14:28:14;4.60;;;3.40;;
18449;SDS011;9354;50.194;7.690;2022-07-10T14:30:43;4.30;;;3.10;;
18449;SDS011;9354;50.194;7.690;2022-07-10T14:33:10;4.50;;;3.33;;
18449;SDS011;9354;50.194;7.690;2022-07-10T14:35:38;4.77;;;2.97;;
18449;SDS011;9354;50.194;7.690;2022-07-10T14:38:05;3.40;;;2.50;;
18449;SDS011;9354;50.194;7.690;2022-07-10T14:40:33;5.10;;;3.17;;
18449;SDS011;9354;50.194;7.690;2022-07-10T14:43:01;6.67;;;2.47;;
18449;SDS011;9354;50.194;7.690;2022-07-10T14:45:28;4.87;;;2.50;;
18449;SDS011;9354;50.194;7.690;2022-07-10T14:47:57;4.47;;;3.07;;
18449;SDS011;9354;50.194;7.690;2022-07-10T14:50:24;3.97;;;2.20;;
18449;SDS011;9354;50.194;7.690;2022-07-10T14:52:52;4.53;;;2.27;;
18449;SDS011;9354;50.194;7.690;2022-07-10T14:55:19;4.70;;;2.03;;
18449;SDS011;9354;50.194;7.690;2022-07-10T14:57:47;2.67;;;1.70;;
18449;SDS011;9354;50.194;7.690;2022-07-10T15:00:15;3.43;;;2.03;;
18449;SDS011;9354;50.194;7.690;2022-07-10T15:02:43;8.00;;;1.97;;
18449;SDS011;9354;50.194;7.690;2022-07-10T15:05:12;3.10;;;1.90;;
18449;SDS011;9354;50.194;7.690;2022-07-10T15:07:40;3.70;;;1.73;;
18449;SDS011;9354;50.194;7.690;2022-07-10T15:10:07;4.57;;;1.83;;
18449;SDS011;9354;50.194;7.690;2022-07-10T15:12:35;4.53;;;1.97;;
18449;SDS011;9354;50.194;7.690;2022-07-10T15:15:04;3.90;;;1.67;;
18449;SDS011;9354;50.194;7.690;2022-07-10T15:17:33;9.47;;;1.90;;
18449;SDS011;9354;50.194;7.690;2022-07-10T15:20:01;4.17;;;1.97;;
18449;SDS011;9354;50.194;7.690;2022-07-10T15:22:30;2.73;;;1.60;;
18449;SDS011;9354;50.194;7.690;2022-07-10T15:24:58;5.63;;;1.70;;
18449;SDS011;9354;50.194;7.690;2022-07-10T15:27:25;4.63;;;2.00;;